sensor_id;sensor_type;location;lat;lon;timestamp;temperature;humidity
37646;DHT22;23489;49.600;6.138;2023-07-09T00:02:14;21.30;99.90
37646;DHT22;23489;49.600;6.138;2023-07-09T00:04:40;21.20;99.90
37646;DHT22;23489;49.600;6.138;2023-07-09T00:07:13;21.20;99.90
37646;DHT22;23489;49.600;6.138;2023-07-09T00:09:40;21.20;99.90
37646;DHT22;23489;49.600;6.138;2023-07-09T00:12:15;21.10;99.90
37646;DHT22;23489;49.600;6.138;2023-07-09T00:14:41;21.10;99.90
37646;DHT22;23489;49.600;6.138;2023-07-09T00:17:28;21.00;99.90
37646;DHT22;23489;49.600;6.138;2023-07-09T00:19:56;20.90;99.90
37646;DHT22;23489;49.600;6.138;2023-07-09T00:22:22;20.90;99.90
37646;DHT22;23489;49.600;6.138;2023-07-09T00:24:50;20.90;99.90
37646;DHT22;23489;49.600;6.138;2023-07-09T00:27:28;20.90;99.90
37646;DHT22;23489;49.600;6.138;2023-07-09T00:29:56;20.90;99.90
37646;DHT22;23489;49.600;6.138;2023-07-09T00:32:21;20.90;99.90
37646;DHT22;23489;49.600;6.138;2023-07-09T00:34:47;20.80;99.90
37646;DHT22;23489;49.600;6.138;2023-07-09T00:37:19;20.80;99.90
37646;DHT22;23489;49.600;6.138;2023-07-09T00:39:47;20.80;99.90
37646;DHT22;23489;49.600;6.138;2023-07-09T00:42:17;20.80;99.90
37646;DHT22;23489;49.600;6.138;2023-07-09T00:44:45;20.70;99.90
37646;DHT22;23489;49.600;6.138;2023-07-09T00:47:28;20.70;99.90
37646;DHT22;23489;49.600;6.138;2023-07-09T00:50:05;20.70;99.90
37646;DHT22;23489;49.600;6.138;2023-07-09T00:52:52;20.70;99.90
37646;DHT22;23489;49.600;6.138;2023-07-09T00:55:27;20.60;99.90
37646;DHT22;23489;49.600;6.138;2023-07-09T00:57:58;20.50;99.90
37646;DHT22;23489;49.600;6.138;2023-07-09T01:00:30;20.50;99.90
37646;DHT22;23489;49.600;6.138;2023-07-09T01:03:02;20.40;99.90
37646;DHT22;23489;49.600;6.138;2023-07-09T01:05:29;20.40;99.90
37646;DHT22;23489;49.600;6.138;2023-07-09T01:07:55;20.40;99.90
37646;DHT22;23489;49.600;6.138;2023-07-09T01:10:23;20.30;99.90
37646;DHT22;23489;49.600;6.138;2023-07-09T01:12:50;20.20;99.90
37646;DHT22;23489;49.600;6.138;2023-07-09T01:15:17;20.30;99.90
37646;DHT22;23489;49.600;6.138;2023-07-09T01:17:42;20.20;99.90
37646;DHT22;23489;49.600;6.138;2023-07-09T01:20:16;20.10;99.90
37646;DHT22;23489;49.600;6.138;2023-07-09T01:22:42;20.10;99.90
37646;DHT22;23489;49.600;6.138;2023-07-09T01:25:08;20.10;99.90
37646;DHT22;23489;49.600;6.138;2023-07-09T01:27:38;20.00;99.90
37646;DHT22;23489;49.600;6.138;2023-07-09T01:30:17;19.90;99.90
37646;DHT22;23489;49.600;6.138;2023-07-09T01:32:43;19.90;99.90
37646;DHT22;23489;49.600;6.138;2023-07-09T01:35:13;19.80;99.90
37646;DHT22;23489;49.600;6.138;2023-07-09T01:37:41;19.80;99.90
37646;DHT22;23489;49.600;6.138;2023-07-09T01:40:09;19.70;99.90
37646;DHT22;23489;49.600;6.138;2023-07-09T01:42:36;19.70;99.90
37646;DHT22;23489;49.600;6.138;2023-07-09T01:45:06;19.70;99.90
37646;DHT22;23489;49.600;6.138;2023-07-09T01:47:32;19.70;99.90
37646;DHT22;23489;49.600;6.138;2023-07-09T01:49:58;19.70;99.90
37646;DHT22;23489;49.600;6.138;2023-07-09T01:52:29;19.60;99.90
37646;DHT22;23489;49.600;6.138;2023-07-09T01:54:56;19.70;99.90
37646;DHT22;23489;49.600;6.138;2023-07-09T01:57:26;19.70;99.90
37646;DHT22;23489;49.600;6.138;2023-07-09T01:59:59;19.70;99.90
37646;DHT22;23489;49.600;6.138;2023-07-09T02:02:26;19.70;99.90
37646;DHT22;23489;49.600;6.138;2023-07-09T02:04:55;19.70;99.90
37646;DHT22;23489;49.600;6.138;2023-07-09T02:07:23;19.70;99.90
37646;DHT22;23489;49.600;6.138;2023-07-09T02:09:49;19.70;99.90
37646;DHT22;23489;49.600;6.138;2023-07-09T02:12:15;19.60;99.90
37646;DHT22;23489;49.600;6.138;2023-07-09T02:14:42;19.50;99.90
37646;DHT22;23489;49.600;6.138;2023-07-09T02:17:09;19.50;99.90
37646;DHT22;23489;49.600;6.138;2023-07-09T02:19:36;19.40;99.90
37646;DHT22;23489;49.600;6.138;2023-07-09T02:22:02;19.30;99.90
37646;DHT22;23489;49.600;6.138;2023-07-09T02:24:28;19.20;99.90
37646;DHT22;23489;49.600;6.138;2023-07-09T02:27:05;19.20;99.90
37646;DHT22;23489;49.600;6.138;2023-07-09T02:29:31;19.20;99.90
37646;DHT22;23489;49.600;6.138;2023-07-09T02:31:58;19.20;99.90
37646;DHT22;23489;49.600;6.138;2023-07-09T02:34:26;19.20;99.90
37646;DHT22;23489;49.600;6.138;2023-07-09T02:36:53;19.10;99.90
37646;DHT22;23489;49.600;6.138;2023-07-09T02:39:20;19.10;99.90
37646;DHT22;23489;49.600;6.138;2023-07-09T02:41:46;19.10;99.90
37646;DHT22;23489;49.600;6.138;2023-07-09T02:44:12;19.10;99.90
37646;DHT22;23489;49.600;6.138;2023-07-09T02:46:39;19.10;99.90
37646;DHT22;23489;49.600;6.138;2023-07-09T02:49:06;19.10;99.90
37646;DHT22;23489;49.600;6.138;2023-07-09T02:51:33;19.10;99.90
37646;DHT22;23489;49.600;6.138;2023-07-09T02:54:01;19.10;99.90
37646;DHT22;23489;49.600;6.138;2023-07-09T02:56:27;19.10;99.90
37646;DHT22;23489;49.600;6.138;2023-07-09T02:58:53;19.10;99.90
37646;DHT22;23489;49.600;6.138;2023-07-09T03:01:19;19.00;99.90
37646;DHT22;23489;49.600;6.138;2023-07-09T03:03:51;19.00;99.90
37646;DHT22;23489;49.600;6.138;2023-07-09T03:06:20;19.00;99.90
37646;DHT22;23489;49.600;6.138;2023-07-09T03:08:45;19.00;99.90
37646;DHT22;23489;49.600;6.138;2023-07-09T03:11:13;19.00;99.90
37646;DHT22;23489;49.600;6.138;2023-07-09T03:13:39;18.90;99.90
37646;DHT22;23489;49.600;6.138;2023-07-09T03:16:05;18.90;99.90
37646;DHT22;23489;49.600;6.138;2023-07-09T03:18:31;18.80;99.90
37646;DHT22;23489;49.600;6.138;2023-07-09T03:20:57;18.80;99.90
37646;DHT22;23489;49.600;6.138;2023-07-09T03:23:23;18.70;99.90
37646;DHT22;23489;49.600;6.138;2023-07-09T03:25:49;18.70;99.90
37646;DHT22;23489;49.600;6.138;2023-07-09T03:28:15;18.70;99.90
37646;DHT22;23489;49.600;6.138;2023-07-09T03:30:42;18.70;99.90
37646;DHT22;23489;49.600;6.138;2023-07-09T03:33:09;18.60;99.90
37646;DHT22;23489;49.600;6.138;2023-07-09T03:35:35;18.60;99.90
37646;DHT22;23489;49.600;6.138;2023-07-09T03:38:02;18.60;99.90
37646;DHT22;23489;49.600;6.138;2023-07-09T03:40:27;18.60;99.90
37646;DHT22;23489;49.600;6.138;2023-07-09T03:42:53;18.50;99.90
37646;DHT22;23489;49.600;6.138;2023-07-09T03:45:18;18.50;99.90
37646;DHT22;23489;49.600;6.138;2023-07-09T03:47:44;18.50;99.90
37646;DHT22;23489;49.600;6.138;2023-07-09T03:50:10;18.60;99.90
37646;DHT22;23489;49.600;6.138;2023-07-09T03:52:37;18.60;99.90
37646;DHT22;23489;49.600;6.138;2023-07-09T03:55:02;18.60;99.90
37646;DHT22;23489;49.600;6.138;2023-07-09T03:57:30;18.60;99.90
37646;DHT22;23489;49.600;6.138;2023-07-09T03:59:56;18.60;99.90
37646;DHT22;23489;49.600;6.138;2023-07-09T04:02:22;18.60;99.90
37646;DHT22;23489;49.600;6.138;2023-07-09T04:04:47;18.50;99.90
37646;DHT22;23489;49.600;6.138;2023-07-09T04:07:13;18.50;99.90
37646;DHT22;23489;49.600;6.138;2023-07-09T04:09:39;18.40;99.90
37646;DHT22;23489;49.600;6.138;2023-07-09T04:12:05;18.40;99.90
37646;DHT22;23489;49.600;6.138;2023-07-09T04:14:31;18.50;99.90
37646;DHT22;23489;49.600;6.138;2023-07-09T04:16:56;18.50;99.90
37646;DHT22;23489;49.600;6.138;2023-07-09T04:19:23;18.50;99.90
37646;DHT22;23489;49.600;6.138;2023-07-09T04:21:49;18.60;99.90
37646;DHT22;23489;49.600;6.138;2023-07-09T04:24:16;18.60;99.90
37646;DHT22;23489;49.600;6.138;2023-07-09T04:26:42;18.70;99.90
37646;DHT22;23489;49.600;6.138;2023-07-09T04:32:27;18.90;99.90
37646;DHT22;23489;49.600;6.138;2023-07-09T04:34:52;18.90;99.90
37646;DHT22;23489;49.600;6.138;2023-07-09T04:37:18;19.00;99.90
37646;DHT22;23489;49.600;6.138;2023-07-09T04:39:44;19.00;99.90
37646;DHT22;23489;49.600;6.138;2023-07-09T04:42:15;19.10;99.90
37646;DHT22;23489;49.600;6.138;2023-07-09T04:44:41;19.10;99.90
37646;DHT22;23489;49.600;6.138;2023-07-09T04:47:07;19.10;99.90
37646;DHT22;23489;49.600;6.138;2023-07-09T04:49:33;19.20;99.90
37646;DHT22;23489;49.600;6.138;2023-07-09T04:51:59;19.30;99.90
37646;DHT22;23489;49.600;6.138;2023-07-09T04:54:26;19.30;99.90
37646;DHT22;23489;49.600;6.138;2023-07-09T04:56:52;19.40;99.90
37646;DHT22;23489;49.600;6.138;2023-07-09T04:59:19;19.60;99.90
37646;DHT22;23489;49.600;6.138;2023-07-09T05:01:44;19.70;99.90
37646;DHT22;23489;49.600;6.138;2023-07-09T05:04:10;19.90;99.90
37646;DHT22;23489;49.600;6.138;2023-07-09T05:06:36;20.20;99.90
37646;DHT22;23489;49.600;6.138;2023-07-09T05:09:02;20.40;99.90
37646;DHT22;23489;49.600;6.138;2023-07-09T05:11:28;20.50;99.90
37646;DHT22;23489;49.600;6.138;2023-07-09T05:13:53;20.70;99.90
37646;DHT22;23489;49.600;6.138;2023-07-09T05:16:20;20.70;99.90
37646;DHT22;23489;49.600;6.138;2023-07-09T05:18:46;20.70;99.90
37646;DHT22;23489;49.600;6.138;2023-07-09T05:21:12;20.80;99.90
37646;DHT22;23489;49.600;6.138;2023-07-09T05:23:37;20.70;99.90
37646;DHT22;23489;49.600;6.138;2023-07-09T05:26:03;20.80;99.90
37646;DHT22;23489;49.600;6.138;2023-07-09T05:28:30;21.00;99.90
37646;DHT22;23489;49.600;6.138;2023-07-09T05:30:55;21.00;99.90
37646;DHT22;23489;49.600;6.138;2023-07-09T05:33:22;21.20;99.90
37646;DHT22;23489;49.600;6.138;2023-07-09T05:35:48;21.40;99.90
37646;DHT22;23489;49.600;6.138;2023-07-09T05:38:14;21.50;99.90
37646;DHT22;23489;49.600;6.138;2023-07-09T05:40:40;21.80;99.90
37646;DHT22;23489;49.600;6.138;2023-07-09T05:43:06;21.90;99.90
37646;DHT22;23489;49.600;6.138;2023-07-09T05:45:32;22.10;99.90
37646;DHT22;23489;49.600;6.138;2023-07-09T05:47:58;22.20;99.90
37646;DHT22;23489;49.600;6.138;2023-07-09T05:50:25;22.40;99.90
37646;DHT22;23489;49.600;6.138;2023-07-09T05:52:50;22.50;99.90
37646;DHT22;23489;49.600;6.138;2023-07-09T05:55:16;22.70;99.90
37646;DHT22;23489;49.600;6.138;2023-07-09T05:57:41;22.90;99.90
37646;DHT22;23489;49.600;6.138;2023-07-09T06:00:07;23.10;99.90
37646;DHT22;23489;49.600;6.138;2023-07-09T06:02:39;23.40;99.90
37646;DHT22;23489;49.600;6.138;2023-07-09T06:05:05;23.60;99.90
37646;DHT22;23489;49.600;6.138;2023-07-09T06:07:34;23.80;99.90
37646;DHT22;23489;49.600;6.138;2023-07-09T06:10:00;23.90;99.90
37646;DHT22;23489;49.600;6.138;2023-07-09T06:12:26;24.00;99.90
37646;DHT22;23489;49.600;6.138;2023-07-09T06:14:51;24.20;99.90
37646;DHT22;23489;49.600;6.138;2023-07-09T06:17:17;24.60;99.90
37646;DHT22;23489;49.600;6.138;2023-07-09T06:19:43;25.40;99.90
37646;DHT22;23489;49.600;6.138;2023-07-09T06:22:08;26.40;99.90
37646;DHT22;23489;49.600;6.138;2023-07-09T06:24:34;27.40;99.90
37646;DHT22;23489;49.600;6.138;2023-07-09T06:27:00;29.00;99.90
37646;DHT22;23489;49.600;6.138;2023-07-09T06:29:25;30.30;97.60
37646;DHT22;23489;49.600;6.138;2023-07-09T06:31:51;31.00;95.30
37646;DHT22;23489;49.600;6.138;2023-07-09T06:34:17;31.70;93.60
37646;DHT22;23489;49.600;6.138;2023-07-09T06:36:42;32.70;91.90
37646;DHT22;23489;49.600;6.138;2023-07-09T06:39:08;33.30;89.50
37646;DHT22;23489;49.600;6.138;2023-07-09T06:41:34;34.30;85.80
37646;DHT22;23489;49.600;6.138;2023-07-09T06:44:09;34.30;83.40
37646;DHT22;23489;49.600;6.138;2023-07-09T06:46:35;34.70;81.40
37646;DHT22;23489;49.600;6.138;2023-07-09T06:49:02;35.30;79.60
37646;DHT22;23489;49.600;6.138;2023-07-09T06:51:27;35.20;78.10
37646;DHT22;23489;49.600;6.138;2023-07-09T06:53:53;34.60;78.70
37646;DHT22;23489;49.600;6.138;2023-07-09T06:56:19;34.80;78.30
37646;DHT22;23489;49.600;6.138;2023-07-09T06:58:45;35.50;76.60
37646;DHT22;23489;49.600;6.138;2023-07-09T07:01:11;35.40;76.20
37646;DHT22;23489;49.600;6.138;2023-07-09T07:03:37;35.20;75.20
37646;DHT22;23489;49.600;6.138;2023-07-09T07:06:03;35.80;73.60
37646;DHT22;23489;49.600;6.138;2023-07-09T07:08:30;36.00;72.30
37646;DHT22;23489;49.600;6.138;2023-07-09T07:10:59;35.70;70.70
37646;DHT22;23489;49.600;6.138;2023-07-09T07:13:33;35.60;71.10
37646;DHT22;23489;49.600;6.138;2023-07-09T07:16:01;35.50;71.10
37646;DHT22;23489;49.600;6.138;2023-07-09T07:18:27;35.50;71.10
37646;DHT22;23489;49.600;6.138;2023-07-09T07:20:53;36.50;68.60
37646;DHT22;23489;49.600;6.138;2023-07-09T07:23:19;36.60;68.40
37646;DHT22;23489;49.600;6.138;2023-07-09T07:25:48;36.90;66.70
37646;DHT22;23489;49.600;6.138;2023-07-09T07:28:14;37.80;65.10
37646;DHT22;23489;49.600;6.138;2023-07-09T07:30:40;37.90;64.00
37646;DHT22;23489;49.600;6.138;2023-07-09T07:33:05;39.10;62.70
37646;DHT22;23489;49.600;6.138;2023-07-09T07:35:31;38.10;63.10
37646;DHT22;23489;49.600;6.138;2023-07-09T07:37:57;39.10;61.40
37646;DHT22;23489;49.600;6.138;2023-07-09T07:40:23;38.90;60.30
37646;DHT22;23489;49.600;6.138;2023-07-09T07:42:48;39.80;59.40
37646;DHT22;23489;49.600;6.138;2023-07-09T07:45:14;39.90;58.00
37646;DHT22;23489;49.600;6.138;2023-07-09T07:47:42;39.50;58.50
37646;DHT22;23489;49.600;6.138;2023-07-09T07:50:18;39.00;59.40
37646;DHT22;23489;49.600;6.138;2023-07-09T07:52:44;40.70;56.50
37646;DHT22;23489;49.600;6.138;2023-07-09T07:55:09;40.20;56.20
37646;DHT22;23489;49.600;6.138;2023-07-09T07:57:35;40.00;56.30
37646;DHT22;23489;49.600;6.138;2023-07-09T08:00:01;39.80;56.10
37646;DHT22;23489;49.600;6.138;2023-07-09T08:02:37;39.30;57.00
37646;DHT22;23489;49.600;6.138;2023-07-09T08:05:04;39.50;56.90
37646;DHT22;23489;49.600;6.138;2023-07-09T08:07:30;39.60;56.30
37646;DHT22;23489;49.600;6.138;2023-07-09T08:09:56;40.30;55.90
37646;DHT22;23489;49.600;6.138;2023-07-09T08:12:22;40.00;56.00
37646;DHT22;23489;49.600;6.138;2023-07-09T08:14:47;39.60;55.90
37646;DHT22;23489;49.600;6.138;2023-07-09T08:17:13;39.00;56.50
37646;DHT22;23489;49.600;6.138;2023-07-09T08:19:50;38.90;57.10
37646;DHT22;23489;49.600;6.138;2023-07-09T08:22:16;39.20;56.90
37646;DHT22;23489;49.600;6.138;2023-07-09T08:24:42;39.70;55.80
37646;DHT22;23489;49.600;6.138;2023-07-09T08:27:09;40.30;54.80
37646;DHT22;23489;49.600;6.138;2023-07-09T08:29:35;40.50;54.40
37646;DHT22;23489;49.600;6.138;2023-07-09T08:32:01;40.60;54.50
37646;DHT22;23489;49.600;6.138;2023-07-09T08:34:27;40.90;53.70
37646;DHT22;23489;49.600;6.138;2023-07-09T08:36:52;41.10;53.80
37646;DHT22;23489;49.600;6.138;2023-07-09T08:39:18;41.50;52.60
37646;DHT22;23489;49.600;6.138;2023-07-09T08:50:14;42.10;51.10
37646;DHT22;23489;49.600;6.138;2023-07-09T08:52:43;41.90;51.10
37646;DHT22;23489;49.600;6.138;2023-07-09T08:55:15;42.60;50.40
37646;DHT22;23489;49.600;6.138;2023-07-09T08:57:44;42.10;51.10
37646;DHT22;23489;49.600;6.138;2023-07-09T09:02:50;42.10;50.70
37646;DHT22;23489;49.600;6.138;2023-07-09T09:05:20;42.40;49.80
37646;DHT22;23489;49.600;6.138;2023-07-09T09:12:40;42.40;49.30
37646;DHT22;23489;49.600;6.138;2023-07-09T09:15:14;42.20;49.10
37646;DHT22;23489;49.600;6.138;2023-07-09T09:17:41;41.80;49.90
37646;DHT22;23489;49.600;6.138;2023-07-09T09:20:11;42.10;49.40
37646;DHT22;23489;49.600;6.138;2023-07-09T09:25:27;42.70;48.80
37646;DHT22;23489;49.600;6.138;2023-07-09T09:27:53;42.90;46.80
37646;DHT22;23489;49.600;6.138;2023-07-09T09:30:19;42.30;48.00
37646;DHT22;23489;49.600;6.138;2023-07-09T09:32:58;41.80;48.00
37646;DHT22;23489;49.600;6.138;2023-07-09T09:37:53;41.70;48.30
37646;DHT22;23489;49.600;6.138;2023-07-09T09:40:19;41.30;48.50
37646;DHT22;23489;49.600;6.138;2023-07-09T09:42:49;40.90;49.10
37646;DHT22;23489;49.600;6.138;2023-07-09T09:45:16;40.90;49.50
37646;DHT22;23489;49.600;6.138;2023-07-09T09:47:43;41.30;48.80
37646;DHT22;23489;49.600;6.138;2023-07-09T09:50:19;41.90;47.40
37646;DHT22;23489;49.600;6.138;2023-07-09T09:52:46;41.60;47.00
37646;DHT22;23489;49.600;6.138;2023-07-09T09:55:19;41.10;47.80
37646;DHT22;23489;49.600;6.138;2023-07-09T09:57:48;41.30;48.10
37646;DHT22;23489;49.600;6.138;2023-07-09T10:00:15;41.30;47.80
37646;DHT22;23489;49.600;6.138;2023-07-09T10:02:41;41.30;47.90
37646;DHT22;23489;49.600;6.138;2023-07-09T10:08:00;40.60;48.50
37646;DHT22;23489;49.600;6.138;2023-07-09T10:10:27;40.10;48.00
37646;DHT22;23489;49.600;6.138;2023-07-09T10:12:56;39.40;49.00
37646;DHT22;23489;49.600;6.138;2023-07-09T10:23:13;37.60;51.00
37646;DHT22;23489;49.600;6.138;2023-07-09T10:25:53;37.20;51.90
37646;DHT22;23489;49.600;6.138;2023-07-09T10:28:41;37.00;52.20
37646;DHT22;23489;49.600;6.138;2023-07-09T10:34:09;36.00;53.70
37646;DHT22;23489;49.600;6.138;2023-07-09T10:36:42;36.40;53.20
37646;DHT22;23489;49.600;6.138;2023-07-09T10:41:39;36.40;53.30
37646;DHT22;23489;49.600;6.138;2023-07-09T10:44:19;36.40;52.20
37646;DHT22;23489;49.600;6.138;2023-07-09T10:46:47;36.00;52.60
37646;DHT22;23489;49.600;6.138;2023-07-09T10:49:14;36.60;52.30
37646;DHT22;23489;49.600;6.138;2023-07-09T10:51:42;37.30;51.10
37646;DHT22;23489;49.600;6.138;2023-07-09T10:56:55;39.40;46.80
37646;DHT22;23489;49.600;6.138;2023-07-09T10:59:28;39.60;46.00
37646;DHT22;23489;49.600;6.138;2023-07-09T11:02:23;39.50;46.70
37646;DHT22;23489;49.600;6.138;2023-07-09T11:08:17;39.20;46.90
37646;DHT22;23489;49.600;6.138;2023-07-09T11:10:54;38.30;47.90
37646;DHT22;23489;49.600;6.138;2023-07-09T11:13:33;37.60;48.20
37646;DHT22;23489;49.600;6.138;2023-07-09T11:16:01;37.00;49.40
37646;DHT22;23489;49.600;6.138;2023-07-09T11:18:30;37.00;49.70
37646;DHT22;23489;49.600;6.138;2023-07-09T11:21:00;36.80;49.40
37646;DHT22;23489;49.600;6.138;2023-07-09T11:23:26;36.60;48.80
37646;DHT22;23489;49.600;6.138;2023-07-09T11:26:02;36.50;48.30
37646;DHT22;23489;49.600;6.138;2023-07-09T11:28:34;36.60;48.70
37646;DHT22;23489;49.600;6.138;2023-07-09T11:31:05;36.60;49.00
37646;DHT22;23489;49.600;6.138;2023-07-09T11:33:31;36.50;49.50
37646;DHT22;23489;49.600;6.138;2023-07-09T11:36:10;36.70;49.80
37646;DHT22;23489;49.600;6.138;2023-07-09T11:38:38;36.60;49.80
37646;DHT22;23489;49.600;6.138;2023-07-09T11:41:22;36.60;50.20
37646;DHT22;23489;49.600;6.138;2023-07-09T11:43:49;36.50;49.80
37646;DHT22;23489;49.600;6.138;2023-07-09T11:46:20;36.40;50.10
37646;DHT22;23489;49.600;6.138;2023-07-09T11:48:47;36.50;50.00
37646;DHT22;23489;49.600;6.138;2023-07-09T11:51:17;36.50;48.20
37646;DHT22;23489;49.600;6.138;2023-07-09T11:53:50;36.30;48.80
37646;DHT22;23489;49.600;6.138;2023-07-09T11:56:23;36.30;49.20
37646;DHT22;23489;49.600;6.138;2023-07-09T11:58:50;36.40;49.70
37646;DHT22;23489;49.600;6.138;2023-07-09T12:01:16;36.40;49.10
37646;DHT22;23489;49.600;6.138;2023-07-09T12:03:43;36.40;49.50
37646;DHT22;23489;49.600;6.138;2023-07-09T12:06:20;36.30;49.30
37646;DHT22;23489;49.600;6.138;2023-07-09T12:08:46;36.10;49.50
37646;DHT22;23489;49.600;6.138;2023-07-09T12:11:22;36.00;49.40
37646;DHT22;23489;49.600;6.138;2023-07-09T12:13:48;35.90;50.10
37646;DHT22;23489;49.600;6.138;2023-07-09T12:16:18;35.70;49.90
37646;DHT22;23489;49.600;6.138;2023-07-09T12:18:45;35.80;49.90
37646;DHT22;23489;49.600;6.138;2023-07-09T12:21:11;35.50;50.10
37646;DHT22;23489;49.600;6.138;2023-07-09T12:23:39;35.40;50.30
37646;DHT22;23489;49.600;6.138;2023-07-09T12:26:05;35.20;50.50
37646;DHT22;23489;49.600;6.138;2023-07-09T12:28:31;34.90;51.20
37646;DHT22;23489;49.600;6.138;2023-07-09T12:30:57;34.60;53.40
37646;DHT22;23489;49.600;6.138;2023-07-09T12:33:23;34.40;57.30
37646;DHT22;23489;49.600;6.138;2023-07-09T12:35:51;34.20;57.20
37646;DHT22;23489;49.600;6.138;2023-07-09T12:38:19;33.90;58.10
37646;DHT22;23489;49.600;6.138;2023-07-09T12:40:45;34.00;56.10
37646;DHT22;23489;49.600;6.138;2023-07-09T12:43:12;34.10;54.70
37646;DHT22;23489;49.600;6.138;2023-07-09T12:45:37;34.20;54.40
37646;DHT22;23489;49.600;6.138;2023-07-09T12:48:03;34.30;53.70
37646;DHT22;23489;49.600;6.138;2023-07-09T12:50:33;34.30;53.70
37646;DHT22;23489;49.600;6.138;2023-07-09T12:53:08;34.30;53.40
37646;DHT22;23489;49.600;6.138;2023-07-09T12:55:40;34.30;53.70
37646;DHT22;23489;49.600;6.138;2023-07-09T12:58:07;34.10;54.00
37646;DHT22;23489;49.600;6.138;2023-07-09T13:00:33;33.90;54.30
37646;DHT22;23489;49.600;6.138;2023-07-09T13:02:59;33.80;54.30
37646;DHT22;23489;49.600;6.138;2023-07-09T13:05:25;33.40;54.60
37646;DHT22;23489;49.600;6.138;2023-07-09T13:07:52;33.00;54.60
37646;DHT22;23489;49.600;6.138;2023-07-09T13:10:19;32.70;56.90
37646;DHT22;23489;49.600;6.138;2023-07-09T13:12:48;32.20;60.30
37646;DHT22;23489;49.600;6.138;2023-07-09T13:17:48;28.90;86.10
37646;DHT22;23489;49.600;6.138;2023-07-09T13:20:14;27.20;93.50
37646;DHT22;23489;49.600;6.138;2023-07-09T13:22:42;25.90;99.90
37646;DHT22;23489;49.600;6.138;2023-07-09T13:25:08;25.10;99.90
37646;DHT22;23489;49.600;6.138;2023-07-09T13:27:34;24.60;99.90
37646;DHT22;23489;49.600;6.138;2023-07-09T13:29:59;24.30;99.90
37646;DHT22;23489;49.600;6.138;2023-07-09T13:32:25;24.10;99.90
37646;DHT22;23489;49.600;6.138;2023-07-09T13:34:51;24.00;99.90
37646;DHT22;23489;49.600;6.138;2023-07-09T13:37:16;23.90;99.90
37646;DHT22;23489;49.600;6.138;2023-07-09T13:39:42;23.80;99.90
37646;DHT22;23489;49.600;6.138;2023-07-09T13:42:15;23.70;99.90
37646;DHT22;23489;49.600;6.138;2023-07-09T13:44:42;23.70;99.90
37646;DHT22;23489;49.600;6.138;2023-07-09T13:47:12;23.70;99.90
37646;DHT22;23489;49.600;6.138;2023-07-09T13:49:40;23.50;99.90
37646;DHT22;23489;49.600;6.138;2023-07-09T13:52:08;23.40;99.90
37646;DHT22;23489;49.600;6.138;2023-07-09T13:54:38;23.40;99.90
37646;DHT22;23489;49.600;6.138;2023-07-09T13:57:04;23.40;99.90
37646;DHT22;23489;49.600;6.138;2023-07-09T13:59:30;23.30;99.90
37646;DHT22;23489;49.600;6.138;2023-07-09T14:01:57;23.30;99.90
37646;DHT22;23489;49.600;6.138;2023-07-09T14:04:23;23.30;99.90
37646;DHT22;23489;49.600;6.138;2023-07-09T14:06:49;23.20;99.90
37646;DHT22;23489;49.600;6.138;2023-07-09T14:09:15;23.20;99.90
37646;DHT22;23489;49.600;6.138;2023-07-09T14:11:42;23.10;99.90
37646;DHT22;23489;49.600;6.138;2023-07-09T14:14:15;23.10;99.90
37646;DHT22;23489;49.600;6.138;2023-07-09T14:16:41;23.10;99.90
37646;DHT22;23489;49.600;6.138;2023-07-09T14:19:10;23.00;99.90
37646;DHT22;23489;49.600;6.138;2023-07-09T14:21:37;23.00;99.90
37646;DHT22;23489;49.600;6.138;2023-07-09T14:24:08;23.00;99.90
37646;DHT22;23489;49.600;6.138;2023-07-09T14:26:40;22.90;99.90
37646;DHT22;23489;49.600;6.138;2023-07-09T14:29:07;23.00;99.90
37646;DHT22;23489;49.600;6.138;2023-07-09T14:31:32;23.20;99.90
37646;DHT22;23489;49.600;6.138;2023-07-09T14:36:56;23.30;99.90
37646;DHT22;23489;49.600;6.138;2023-07-09T14:39:22;23.50;99.90
37646;DHT22;23489;49.600;6.138;2023-07-09T14:41:48;23.60;99.90
37646;DHT22;23489;49.600;6.138;2023-07-09T14:44:19;23.60;99.90
37646;DHT22;23489;49.600;6.138;2023-07-09T14:46:48;23.50;99.90
37646;DHT22;23489;49.600;6.138;2023-07-09T14:49:13;23.60;99.90
37646;DHT22;23489;49.600;6.138;2023-07-09T14:51:39;23.70;99.90
37646;DHT22;23489;49.600;6.138;2023-07-09T14:54:10;24.00;99.90
37646;DHT22;23489;49.600;6.138;2023-07-09T14:56:42;24.20;99.90
37646;DHT22;23489;49.600;6.138;2023-07-09T14:59:08;24.50;99.90
37646;DHT22;23489;49.600;6.138;2023-07-09T15:01:35;24.60;99.90
37646;DHT22;23489;49.600;6.138;2023-07-09T15:04:05;24.90;99.90
37646;DHT22;23489;49.600;6.138;2023-07-09T15:06:32;25.00;99.90
37646;DHT22;23489;49.600;6.138;2023-07-09T15:08:58;25.30;99.90
37646;DHT22;23489;49.600;6.138;2023-07-09T15:11:23;25.50;99.90
37646;DHT22;23489;49.600;6.138;2023-07-09T15:13:49;25.50;99.90
37646;DHT22;23489;49.600;6.138;2023-07-09T15:16:15;25.60;99.90
37646;DHT22;23489;49.600;6.138;2023-07-09T15:18:40;25.70;99.90
37646;DHT22;23489;49.600;6.138;2023-07-09T15:21:06;25.80;99.90
37646;DHT22;23489;49.600;6.138;2023-07-09T15:23:31;25.80;99.90
37646;DHT22;23489;49.600;6.138;2023-07-09T15:26:00;25.70;99.90
37646;DHT22;23489;49.600;6.138;2023-07-09T15:28:26;25.60;99.90
37646;DHT22;23489;49.600;6.138;2023-07-09T15:30:52;25.60;99.90
37646;DHT22;23489;49.600;6.138;2023-07-09T15:33:18;25.50;99.90
37646;DHT22;23489;49.600;6.138;2023-07-09T15:35:46;25.50;99.90
37646;DHT22;23489;49.600;6.138;2023-07-09T15:40:44;25.40;99.90
37646;DHT22;23489;49.600;6.138;2023-07-09T15:43:11;25.30;99.90
37646;DHT22;23489;49.600;6.138;2023-07-09T15:45:39;25.20;99.90
37646;DHT22;23489;49.600;6.138;2023-07-09T15:48:05;25.20;99.90
37646;DHT22;23489;49.600;6.138;2023-07-09T15:50:31;25.10;99.90
37646;DHT22;23489;49.600;6.138;2023-07-09T15:52:58;25.10;99.90
37646;DHT22;23489;49.600;6.138;2023-07-09T15:55:24;25.20;99.90
37646;DHT22;23489;49.600;6.138;2023-07-09T15:57:50;25.20;99.90
37646;DHT22;23489;49.600;6.138;2023-07-09T16:00:20;25.10;99.90
37646;DHT22;23489;49.600;6.138;2023-07-09T16:02:47;25.10;99.90
37646;DHT22;23489;49.600;6.138;2023-07-09T16:05:24;25.20;99.90
37646;DHT22;23489;49.600;6.138;2023-07-09T16:07:50;25.20;99.90
37646;DHT22;23489;49.600;6.138;2023-07-09T16:10:16;25.10;99.90
37646;DHT22;23489;49.600;6.138;2023-07-09T16:12:42;25.10;99.90
37646;DHT22;23489;49.600;6.138;2023-07-09T16:15:13;25.10;99.90
37646;DHT22;23489;49.600;6.138;2023-07-09T16:17:42;25.20;99.90
37646;DHT22;23489;49.600;6.138;2023-07-09T16:20:11;25.20;99.90
37646;DHT22;23489;49.600;6.138;2023-07-09T16:22:38;25.50;99.90
37646;DHT22;23489;49.600;6.138;2023-07-09T16:25:11;25.70;99.90
37646;DHT22;23489;49.600;6.138;2023-07-09T16:27:37;26.00;99.90
37646;DHT22;23489;49.600;6.138;2023-07-09T16:30:08;26.20;99.90